sensor_id;sensor_type;location;lat;lon;timestamp;pressure;altitude;pressure_sealevel;temperature;humidity
73429;BME280;61643;49.564;17.412;2023-04-08T00:01:19;98266.69;;;1.56;100.00
73429;BME280;61643;49.564;17.412;2023-04-08T00:03:45;98260.03;;;1.66;100.00
73429;BME280;61643;49.564;17.412;2023-04-08T00:06:11;98268.00;;;1.73;100.00
73429;BME280;61643;49.564;17.412;2023-04-08T00:08:37;98268.03;;;1.79;100.00
73429;BME280;61643;49.564;17.412;2023-04-08T00:11:03;98261.47;;;1.75;100.00
73429;BME280;61643;49.564;17.412;2023-04-08T00:13:29;98259.44;;;1.77;100.00
73429;BME280;61643;49.564;17.412;2023-04-08T00:15:55;98264.31;;;1.74;100.00
73429;BME280;61643;49.564;17.412;2023-04-08T00:18:21;98256.19;;;1.75;100.00
73429;BME280;61643;49.564;17.412;2023-04-08T00:20:47;98265.13;;;1.74;100.00
73429;BME280;61643;49.564;17.412;2023-04-08T00:23:13;98263.09;;;1.70;100.00
73429;BME280;61643;49.564;17.412;2023-04-08T00:25:39;98263.88;;;1.64;100.00
73429;BME280;61643;49.564;17.412;2023-04-08T00:28:05;98270.44;;;1.68;100.00
73429;BME280;61643;49.564;17.412;2023-04-08T00:30:31;98263.09;;;1.70;100.00
73429;BME280;61643;49.564;17.412;2023-04-08T00:32:57;98266.59;;;1.77;100.00
73429;BME280;61643;49.564;17.412;2023-04-08T00:35:23;98261.06;;;1.78;100.00
73429;BME280;61643;49.564;17.412;2023-04-08T00:37:49;98258.41;;;1.78;100.00
73429;BME280;61643;49.564;17.412;2023-04-08T00:40:15;98263.94;;;1.77;100.00
73429;BME280;61643;49.564;17.412;2023-04-08T00:42:41;98270.69;;;1.79;100.00
73429;BME280;61643;49.564;17.412;2023-04-08T00:45:08;98272.94;;;1.82;100.00
73429;BME280;61643;49.564;17.412;2023-04-08T00:47:35;98266.63;;;1.83;100.00
73429;BME280;61643;49.564;17.412;2023-04-08T00:50:01;98270.25;;;1.76;100.00
73429;BME280;61643;49.564;17.412;2023-04-08T00:52:27;98279.91;;;1.90;100.00
73429;BME280;61643;49.564;17.412;2023-04-08T00:54:54;98269.50;;;1.95;100.00
73429;BME280;61643;49.564;17.412;2023-04-08T00:57:20;98272.78;;;1.97;100.00
73429;BME280;61643;49.564;17.412;2023-04-08T00:59:46;98272.34;;;1.87;100.00
73429;BME280;61643;49.564;17.412;2023-04-08T01:02:34;98271.53;;;1.93;100.00
73429;BME280;61643;49.564;17.412;2023-04-08T01:05:03;98273.16;;;1.81;100.00
73429;BME280;61643;49.564;17.412;2023-04-08T01:07:37;98273.75;;;1.76;100.00
73429;BME280;61643;49.564;17.412;2023-04-08T01:10:16;98277.00;;;1.85;100.00
73429;BME280;61643;49.564;17.412;2023-04-08T01:13:03;98265.78;;;1.76;100.00
73429;BME280;61643;49.564;17.412;2023-04-08T01:15:32;98268.03;;;1.86;100.00
73429;BME280;61643;49.564;17.412;2023-04-08T01:18:05;98268.69;;;1.88;100.00
73429;BME280;61643;49.564;17.412;2023-04-08T01:20:32;98271.13;;;1.96;100.00
73429;BME280;61643;49.564;17.412;2023-04-08T01:25:54;98274.00;;;1.94;100.00
73429;BME280;61643;49.564;17.412;2023-04-08T01:28:23;98267.22;;;1.92;100.00
73429;BME280;61643;49.564;17.412;2023-04-08T01:30:50;98271.94;;;1.90;100.00
73429;BME280;61643;49.564;17.412;2023-04-08T01:33:17;98274.16;;;1.86;100.00
73429;BME280;61643;49.564;17.412;2023-04-08T01:35:44;98273.75;;;1.83;100.00
73429;BME280;61643;49.564;17.412;2023-04-08T01:38:15;98264.78;;;1.84;100.00
73429;BME280;61643;49.564;17.412;2023-04-08T01:40:43;98265.97;;;1.81;100.00
73429;BME280;61643;49.564;17.412;2023-04-08T01:43:12;98269.28;;;1.83;100.00
73429;BME280;61643;49.564;17.412;2023-04-08T01:45:39;98269.47;;;1.82;100.00
73429;BME280;61643;49.564;17.412;2023-04-08T01:48:06;98276.59;;;1.81;100.00
73429;BME280;61643;49.564;17.412;2023-04-08T01:50:33;98266.97;;;1.67;100.00
73429;BME280;61643;49.564;17.412;2023-04-08T01:53:00;98265.13;;;1.74;100.00
73429;BME280;61643;49.564;17.412;2023-04-08T01:55:31;98264.75;;;1.77;100.00
73429;BME280;61643;49.564;17.412;2023-04-08T01:57:58;98272.91;;;1.69;100.00
73429;BME280;61643;49.564;17.412;2023-04-08T02:00:28;98270.66;;;1.73;100.00
73429;BME280;61643;49.564;17.412;2023-04-08T02:02:54;98276.78;;;1.73;100.00
73429;BME280;61643;49.564;17.412;2023-04-08T02:05:22;98268.00;;;1.73;100.00
73429;BME280;61643;49.564;17.412;2023-04-08T02:07:48;98266.38;;;1.72;100.00
73429;BME280;61643;49.564;17.412;2023-04-08T02:10:14;98269.44;;;1.75;100.00
73429;BME280;61643;49.564;17.412;2023-04-08T02:12:42;98277.41;;;1.82;100.00
73429;BME280;61643;49.564;17.412;2023-04-08T02:15:09;98274.75;;;1.82;100.00
73429;BME280;61643;49.564;17.412;2023-04-08T02:17:50;98273.97;;;1.88;100.00
73429;BME280;61643;49.564;17.412;2023-04-08T02:25:28;98279.47;;;1.80;100.00
73429;BME280;61643;49.564;17.412;2023-04-08T02:27:56;98278.81;;;1.78;100.00
73429;BME280;61643;49.564;17.412;2023-04-08T02:30:26;98285.19;;;1.77;100.00
73429;BME280;61643;49.564;17.412;2023-04-08T02:32:53;98276.56;;;1.75;100.00
73429;BME280;61643;49.564;17.412;2023-04-08T02:35:21;98281.88;;;1.75;100.00
73429;BME280;61643;49.564;17.412;2023-04-08T02:37:48;98284.97;;;1.78;100.00
73429;BME280;61643;49.564;17.412;2023-04-08T02:40:27;98281.28;;;1.79;100.00
73429;BME280;61643;49.564;17.412;2023-04-08T02:42:54;98281.88;;;1.75;100.00
73429;BME280;61643;49.564;17.412;2023-04-08T02:45:20;98283.72;;;1.74;100.00
73429;BME280;61643;49.564;17.412;2023-04-08T02:47:46;98289.25;;;1.73;100.00
73429;BME280;61643;49.564;17.412;2023-04-08T02:50:13;98286.78;;;1.71;100.00
73429;BME280;61643;49.564;17.412;2023-04-08T02:52:39;98285.19;;;1.77;100.00
73429;BME280;61643;49.564;17.412;2023-04-08T02:55:06;98288.41;;;1.72;100.00
73429;BME280;61643;49.564;17.412;2023-04-08T02:57:38;98288.63;;;1.77;100.00
73429;BME280;61643;49.564;17.412;2023-04-08T03:00:06;98303.94;;;1.82;100.00
73429;BME280;61643;49.564;17.412;2023-04-08T03:02:32;98292.09;;;1.78;100.00
73429;BME280;61643;49.564;17.412;2023-04-08T03:04:58;98298.66;;;1.82;100.00
73429;BME280;61643;49.564;17.412;2023-04-08T03:07:24;98298.03;;;1.80;100.00
73429;BME280;61643;49.564;17.412;2023-04-08T03:09:50;98307.25;;;1.84;100.00
73429;BME280;61643;49.564;17.412;2023-04-08T03:12:16;98304.38;;;1.85;100.00
73429;BME280;61643;49.564;17.412;2023-04-08T03:14:42;98307.25;;;1.84;100.00
73429;BME280;61643;49.564;17.412;2023-04-08T03:17:08;98303.53;;;1.85;100.00
73429;BME280;61643;49.564;17.412;2023-04-08T03:19:34;98290.06;;;1.80;100.00
73429;BME280;61643;49.564;17.412;2023-04-08T03:22:00;98304.38;;;1.85;100.00
73429;BME280;61643;49.564;17.412;2023-04-08T03:24:26;98296.22;;;1.87;100.00
73429;BME280;61643;49.564;17.412;2023-04-08T03:26:52;98294.78;;;1.84;100.00
73429;BME280;61643;49.564;17.412;2023-04-08T03:29:18;98297.03;;;1.87;100.00
73429;BME280;61643;49.564;17.412;2023-04-08T03:31:44;98297.47;;;1.91;100.00
73429;BME280;61643;49.564;17.412;2023-04-08T03:34:10;98306.84;;;1.93;100.00
73429;BME280;61643;49.564;17.412;2023-04-08T03:36:36;98304.78;;;1.89;100.00
73429;BME280;61643;49.564;17.412;2023-04-08T03:39:02;98307.44;;;1.82;100.00
73429;BME280;61643;49.564;17.412;2023-04-08T03:41:28;98317.84;;;1.84;100.00
73429;BME280;61643;49.564;17.412;2023-04-08T03:43:55;98319.72;;;1.90;100.00
73429;BME280;61643;49.564;17.412;2023-04-08T03:46:21;98315.56;;;1.74;100.00
73429;BME280;61643;49.564;17.412;2023-04-08T03:48:47;98317.22;;;1.82;100.00
73429;BME280;61643;49.564;17.412;2023-04-08T03:51:13;98315.13;;;1.71;100.00
73429;BME280;61643;49.564;17.412;2023-04-08T03:53:39;98326.41;;;1.86;100.00
73429;BME280;61643;49.564;17.412;2023-04-08T03:56:05;98321.34;;;1.91;100.00
73429;BME280;61643;49.564;17.412;2023-04-08T03:58:31;98331.16;;;1.97;100.00
73429;BME280;61643;49.564;17.412;2023-04-08T04:00:57;98333.22;;;2.02;100.00
73429;BME280;61643;49.564;17.412;2023-04-08T04:03:23;98341.59;;;2.05;100.00
73429;BME280;61643;49.564;17.412;2023-04-08T04:05:50;98337.31;;;2.04;100.00
73429;BME280;61643;49.564;17.412;2023-04-08T04:08:16;98343.03;;;2.08;100.00
73429;BME280;61643;49.564;17.412;2023-04-08T04:10:42;98339.97;;;2.04;100.00
73429;BME280;61643;49.564;17.412;2023-04-08T04:13:08;98344.88;;;2.07;100.00
73429;BME280;61643;49.564;17.412;2023-04-08T04:15:37;98346.94;;;2.12;100.00
73429;BME280;61643;49.564;17.412;2023-04-08T04:18:04;98348.56;;;2.06;100.00
73429;BME280;61643;49.564;17.412;2023-04-08T04:20:30;98346.28;;;2.03;100.00
73429;BME280;61643;49.564;17.412;2023-04-08T04:22:56;98352.44;;;2.10;100.00
73429;BME280;61643;49.564;17.412;2023-04-08T04:25:22;98350.59;;;2.11;100.00
73429;BME280;61643;49.564;17.412;2023-04-08T04:27:48;98352.25;;;2.18;100.00
73429;BME280;61643;49.564;17.412;2023-04-08T04:30:14;98358.41;;;2.25;100.00
73429;BME280;61643;49.564;17.412;2023-04-08T04:32:41;98359.63;;;2.23;100.00
73429;BME280;61643;49.564;17.412;2023-04-08T04:35:10;98361.47;;;2.22;100.00
73429;BME280;61643;49.564;17.412;2023-04-08T04:37:36;98358.38;;;2.19;100.00
73429;BME280;61643;49.564;17.412;2023-04-08T04:40:03;98369.00;;;2.12;100.00
73429;BME280;61643;49.564;17.412;2023-04-08T04:42:30;98370.66;;;2.20;100.00
73429;BME280;61643;49.564;17.412;2023-04-08T04:44:56;98367.38;;;2.24;100.00
73429;BME280;61643;49.564;17.412;2023-04-08T04:47:22;98372.91;;;2.23;100.00
73429;BME280;61643;49.564;17.412;2023-04-08T04:49:48;98374.75;;;2.22;100.00
73429;BME280;61643;49.564;17.412;2023-04-08T04:52:14;98374.31;;;2.19;100.00
73429;BME280;61643;49.564;17.412;2023-04-08T04:54:40;98377.00;;;2.25;100.00
73429;BME280;61643;49.564;17.412;2023-04-08T04:57:06;98381.25;;;2.13;100.00
73429;BME280;61643;49.564;17.412;2023-04-08T04:59:32;98378.78;;;2.05;100.00
73429;BME280;61643;49.564;17.412;2023-04-08T05:01:58;98377.78;;;2.13;100.00
73429;BME280;61643;49.564;17.412;2023-04-08T05:04:24;98386.50;;;2.00;100.00
73429;BME280;61643;49.564;17.412;2023-04-08T05:06:51;98385.31;;;2.03;100.00
73429;BME280;61643;49.564;17.412;2023-04-08T05:09:17;98389.59;;;2.10;100.00
73429;BME280;61643;49.564;17.412;2023-04-08T05:11:43;98393.13;;;2.24;100.00
73429;BME280;61643;49.564;17.412;2023-04-08T05:14:09;98395.59;;;2.25;100.00
73429;BME280;61643;49.564;17.412;2023-04-08T05:16:35;98400.31;;;2.30;100.00
73429;BME280;61643;49.564;17.412;2023-04-08T05:19:01;98402.16;;;2.36;100.00
73429;BME280;61643;49.564;17.412;2023-04-08T05:21:27;98402.78;;;2.38;100.00
73429;BME280;61643;49.564;17.412;2023-04-08T05:23:53;98403.59;;;2.38;100.00
73429;BME280;61643;49.564;17.412;2023-04-08T05:26:19;98408.28;;;2.36;100.00
73429;BME280;61643;49.564;17.412;2023-04-08T05:28:47;98407.84;;;2.20;100.00
73429;BME280;61643;49.564;17.412;2023-04-08T05:31:15;98406.63;;;2.29;100.00
73429;BME280;61643;49.564;17.412;2023-04-08T05:33:41;98413.19;;;2.39;100.00
73429;BME280;61643;49.564;17.412;2023-04-08T05:36:07;98414.66;;;2.42;100.00
73429;BME280;61643;49.564;17.412;2023-04-08T05:38:33;98416.91;;;2.45;100.00
73429;BME280;61643;49.564;17.412;2023-04-08T05:40:59;98422.56;;;2.29;100.00
73429;BME280;61643;49.564;17.412;2023-04-08T05:43:25;98425.22;;;2.35;100.00
73429;BME280;61643;49.564;17.412;2023-04-08T05:45:51;98410.53;;;2.39;100.00
73429;BME280;61643;49.564;17.412;2023-04-08T05:48:17;98430.19;;;2.45;100.00
73429;BME280;61643;49.564;17.412;2023-04-08T05:50:43;98431.00;;;2.45;100.00
73429;BME280;61643;49.564;17.412;2023-04-08T05:53:09;98427.53;;;2.52;100.00
73429;BME280;61643;49.564;17.412;2023-04-08T05:55:35;98423.66;;;2.47;100.00
73429;BME280;61643;49.564;17.412;2023-04-08T05:58:01;98428.38;;;2.59;100.00
73429;BME280;61643;49.564;17.412;2023-04-08T06:00:27;98439.34;;;2.42;100.00
73429;BME280;61643;49.564;17.412;2023-04-08T06:02:53;98434.50;;;2.53;100.00
73429;BME280;61643;49.564;17.412;2023-04-08T06:05:19;98445.06;;;2.39;100.00
73429;BME280;61643;49.564;17.412;2023-04-08T06:07:44;98444.28;;;2.45;100.00
73429;BME280;61643;49.564;17.412;2023-04-08T06:10:10;98446.97;;;2.59;100.00
73429;BME280;61643;49.564;17.412;2023-04-08T06:12:36;98441.66;;;2.65;100.00
73429;BME280;61643;49.564;17.412;2023-04-08T06:15:06;98444.16;;;2.73;100.00
73429;BME280;61643;49.564;17.412;2023-04-08T06:17:36;98466.44;;;2.79;100.00
73429;BME280;61643;49.564;17.412;2023-04-08T06:20:03;98458.47;;;2.79;100.00
73429;BME280;61643;49.564;17.412;2023-04-08T06:22:29;98465.66;;;2.78;100.00
73429;BME280;61643;49.564;17.412;2023-04-08T06:24:55;98469.94;;;2.86;100.00
73429;BME280;61643;49.564;17.412;2023-04-08T06:27:21;98460.75;;;2.88;100.00
73429;BME280;61643;49.564;17.412;2023-04-08T06:29:47;98464.84;;;2.91;100.00
73429;BME280;61643;49.564;17.412;2023-04-08T06:32:13;98463.22;;;2.96;100.00
73429;BME280;61643;49.564;17.412;2023-04-08T06:34:39;98466.69;;;2.97;100.00
73429;BME280;61643;49.564;17.412;2023-04-08T06:37:05;98473.44;;;3.00;100.00
73429;BME280;61643;49.564;17.412;2023-04-08T06:39:32;98464.84;;;3.04;100.00
73429;BME280;61643;49.564;17.412;2023-04-08T06:41:58;98467.31;;;3.06;100.00
73429;BME280;61643;49.564;17.412;2023-04-08T06:44:24;98477.53;;;3.15;100.00
73429;BME280;61643;49.564;17.412;2023-04-08T06:46:50;98475.53;;;3.11;100.00
73429;BME280;61643;49.564;17.412;2023-04-08T06:49:16;98477.13;;;3.12;100.00
73429;BME280;61643;49.564;17.412;2023-04-08T06:51:42;98475.53;;;3.11;100.00
73429;BME280;61643;49.564;17.412;2023-04-08T06:54:08;98474.06;;;2.95;100.00
73429;BME280;61643;49.564;17.412;2023-04-08T06:56:37;98484.09;;;3.13;100.00
73429;BME280;61643;49.564;17.412;2023-04-08T06:59:03;98494.31;;;3.09;100.00
73429;BME280;61643;49.564;17.412;2023-04-08T07:01:29;98487.75;;;3.05;100.00
73429;BME280;61643;49.564;17.412;2023-04-08T07:03:57;98489.84;;;3.16;100.00
73429;BME280;61643;49.564;17.412;2023-04-08T07:06:23;98488.22;;;3.22;100.00
73429;BME280;61643;49.564;17.412;2023-04-08T07:08:49;98493.94;;;3.32;100.00
73429;BME280;61643;49.564;17.412;2023-04-08T07:11:15;98494.56;;;3.27;100.00
73429;BME280;61643;49.564;17.412;2023-04-08T07:13:41;98491.06;;;3.20;100.00
73429;BME280;61643;49.564;17.412;2023-04-08T07:16:08;98500.28;;;3.24;100.00
73429;BME280;61643;49.564;17.412;2023-04-08T07:18:34;98496.38;;;3.33;100.00
73429;BME280;61643;49.564;17.412;2023-04-08T07:21:00;98502.94;;;3.37;100.00
73429;BME280;61643;49.564;17.412;2023-04-08T07:23:26;98507.25;;;3.38;100.00
73429;BME280;61643;49.564;17.412;2023-04-08T07:25:52;98502.75;;;3.39;100.00
73429;BME280;61643;49.564;17.412;2023-04-08T07:28:21;98518.94;;;3.57;100.00
73429;BME280;61643;49.564;17.412;2023-04-08T07:30:47;98519.53;;;3.66;100.00
73429;BME280;61643;49.564;17.412;2023-04-08T07:33:13;98527.72;;;3.71;100.00
73429;BME280;61643;49.564;17.412;2023-04-08T07:35:40;98527.50;;;3.66;100.00
73429;BME280;61643;49.564;17.412;2023-04-08T07:38:06;98533.47;;;3.68;100.00
73429;BME280;61643;49.564;17.412;2023-04-08T07:40:36;98538.97;;;3.73;100.00
73429;BME280;61643;49.564;17.412;2023-04-08T07:43:02;98537.34;;;3.78;100.00
73429;BME280;61643;49.564;17.412;2023-04-08T07:45:28;98542.69;;;3.78;100.00
73429;BME280;61643;49.564;17.412;2023-04-08T07:47:54;98547.38;;;3.76;100.00
73429;BME280;61643;49.564;17.412;2023-04-08T07:50:20;98552.31;;;3.86;100.00
73429;BME280;61643;49.564;17.412;2023-04-08T07:52:46;98546.97;;;3.86;100.00
73429;BME280;61643;49.564;17.412;2023-04-08T07:55:12;98557.63;;;3.86;100.00
73429;BME280;61643;49.564;17.412;2023-04-08T07:57:38;98559.66;;;3.97;100.00
73429;BME280;61643;49.564;17.412;2023-04-08T08:00:04;98555.78;;;4.00;100.00
73429;BME280;61643;49.564;17.412;2023-04-08T08:02:30;98560.47;;;4.04;100.00
73429;BME280;61643;49.564;17.412;2023-04-08T08:04:56;98557.41;;;4.01;98.26
73429;BME280;61643;49.564;17.412;2023-04-08T08:07:22;98556.97;;;4.10;98.95
73429;BME280;61643;49.564;17.412;2023-04-08T08:09:48;98556.94;;;4.23;99.27
73429;BME280;61643;49.564;17.412;2023-04-08T08:12:14;98552.84;;;4.27;100.00
73429;BME280;61643;49.564;17.412;2023-04-08T08:14:40;98562.72;;;4.14;97.88
73429;BME280;61643;49.564;17.412;2023-04-08T08:17:06;98552.47;;;4.30;98.36
73429;BME280;61643;49.564;17.412;2023-04-08T08:19:32;98563.50;;;4.40;97.81
73429;BME280;61643;49.564;17.412;2023-04-08T08:21:58;98565.34;;;4.33;94.95
73429;BME280;61643;49.564;17.412;2023-04-08T08:24:24;98566.75;;;4.42;98.74
73429;BME280;61643;49.564;17.412;2023-04-08T08:26:50;98569.25;;;4.37;98.10
73429;BME280;61643;49.564;17.412;2023-04-08T08:29:16;98566.34;;;4.45;97.80
73429;BME280;61643;49.564;17.412;2023-04-08T08:31:42;98568.00;;;4.40;94.95
73429;BME280;61643;49.564;17.412;2023-04-08T08:34:08;98574.97;;;4.41;96.45
73429;BME280;61643;49.564;17.412;2023-04-08T08:36:34;98582.75;;;4.56;95.45
73429;BME280;61643;49.564;17.412;2023-04-08T08:39:00;98578.44;;;4.48;96.74
73429;BME280;61643;49.564;17.412;2023-04-08T08:41:32;98588.31;;;4.41;94.47
73429;BME280;61643;49.564;17.412;2023-04-08T08:43:58;98598.34;;;4.39;96.47
73429;BME280;61643;49.564;17.412;2023-04-08T08:46:25;98589.28;;;4.53;98.36
73429;BME280;61643;49.564;17.412;2023-04-08T08:48:51;98598.31;;;4.59;97.69
73429;BME280;61643;49.564;17.412;2023-04-08T08:51:17;98598.31;;;4.59;100.00
73429;BME280;61643;49.564;17.412;2023-04-08T08:53:43;98604.06;;;4.49;97.66
73429;BME280;61643;49.564;17.412;2023-04-08T08:56:10;98603.88;;;4.44;98.71
73429;BME280;61643;49.564;17.412;2023-04-08T08:58:36;98606.53;;;4.51;95.62
73429;BME280;61643;49.564;17.412;2023-04-08T09:01:30;98613.06;;;4.61;96.70
73429;BME280;61643;49.564;17.412;2023-04-08T09:04:18;98612.22;;;4.74;98.49
73429;BME280;61643;49.564;17.412;2023-04-08T09:06:49;98610.94;;;4.83;99.08
73429;BME280;61643;49.564;17.412;2023-04-08T09:09:18;98614.03;;;4.80;99.37
73429;BME280;61643;49.564;17.412;2023-04-08T09:11:45;98616.28;;;4.83;100.00
73429;BME280;61643;49.564;17.412;2023-04-08T09:16:43;98625.78;;;4.46;95.12
73429;BME280;61643;49.564;17.412;2023-04-08T09:19:10;98627.59;;;4.65;100.00
73429;BME280;61643;49.564;17.412;2023-04-08T09:21:37;98628.00;;;4.75;100.00
73429;BME280;61643;49.564;17.412;2023-04-08T09:24:03;98629.00;;;4.81;100.00
73429;BME280;61643;49.564;17.412;2023-04-08T09:26:29;98632.09;;;4.84;100.00
73429;BME280;61643;49.564;17.412;2023-04-08T09:29:07;98638.00;;;4.86;100.00
73429;BME280;61643;49.564;17.412;2023-04-08T09:31:35;98624.69;;;4.86;96.54
73429;BME280;61643;49.564;17.412;2023-04-08T09:34:14;98639.00;;;4.92;93.82
73429;BME280;61643;49.564;17.412;2023-04-08T09:36:41;98642.53;;;4.86;92.89
73429;BME280;61643;49.564;17.412;2023-04-08T09:39:07;98643.72;;;4.96;95.45
73429;BME280;61643;49.564;17.412;2023-04-08T09:41:34;98636.34;;;4.99;100.00
73429;BME280;61643;49.564;17.412;2023-04-08T09:44:05;98638.78;;;5.00;100.00
73429;BME280;61643;49.564;17.412;2023-04-08T09:46:39;98644.13;;;5.00;100.00
73429;BME280;61643;49.564;17.412;2023-04-08T09:49:12;98645.34;;;5.04;100.00
73429;BME280;61643;49.564;17.412;2023-04-08T09:51:52;98652.50;;;5.04;100.00
73429;BME280;61643;49.564;17.412;2023-04-08T09:54:24;98644.13;;;5.00;100.00
73429;BME280;61643;49.564;17.412;2023-04-08T09:57:00;98641.44;;;5.00;100.00
73429;BME280;61643;49.564;17.412;2023-04-08T09:59:33;98652.34;;;4.99;100.00
73429;BME280;61643;49.564;17.412;2023-04-08T10:02:06;98647.66;;;4.87;96.55
73429;BME280;61643;49.564;17.412;2023-04-08T10:04:34;98650.53;;;4.86;100.00
73429;BME280;61643;49.564;17.412;2023-04-08T10:07:03;98651.16;;;4.88;99.03
73429;BME280;61643;49.564;17.412;2023-04-08T10:09:31;98653.41;;;4.78;100.00
73429;BME280;61643;49.564;17.412;2023-04-08T10:11:58;98654.22;;;4.78;100.00
73429;BME280;61643;49.564;17.412;2023-04-08T10:14:24;98654.91;;;4.54;100.00
73429;BME280;61643;49.564;17.412;2023-04-08T10:17:27;98656.97;;;4.52;100.00
73429;BME280;61643;49.564;17.412;2023-04-08T10:19:53;98652.88;;;4.43;100.00
73429;BME280;61643;49.564;17.412;2023-04-08T10:27:43;98657.38;;;4.42;100.00
73429;BME280;61643;49.564;17.412;2023-04-08T10:30:42;98667.84;;;4.37;100.00
73429;BME280;61643;49.564;17.412;2023-04-08T10:33:10;98671.50;;;4.50;100.00
73429;BME280;61643;49.564;17.412;2023-04-08T10:35:39;98676.41;;;4.53;100.00
73429;BME280;61643;49.564;17.412;2023-04-08T10:38:07;98673.75;;;4.66;100.00
73429;BME280;61643;49.564;17.412;2023-04-08T10:40:37;98668.84;;;4.63;99.84
73429;BME280;61643;49.564;17.412;2023-04-08T10:43:03;98664.31;;;4.63;98.26
73429;BME280;61643;49.564;17.412;2023-04-08T10:45:33;98676.19;;;4.67;99.49
73429;BME280;61643;49.564;17.412;2023-04-08T10:48:16;98670.03;;;4.67;98.78
73429;BME280;61643;49.564;17.412;2023-04-08T10:53:26;98667.59;;;4.72;98.21
73429;BME280;61643;49.564;17.412;2023-04-08T10:55:54;98662.63;;;4.82;98.02
73429;BME280;61643;49.564;17.412;2023-04-08T10:58:28;98654.63;;;4.95;99.55
73429;BME280;61643;49.564;17.412;2023-04-08T11:00:55;98663.81;;;5.06;100.00
73429;BME280;61643;49.564;17.412;2023-04-08T11:03:21;98662.72;;;5.20;100.00
73429;BME280;61643;49.564;17.412;2023-04-08T11:05:48;98661.31;;;5.17;100.00
73429;BME280;61643;49.564;17.412;2023-04-08T11:08:14;98655.97;;;5.11;100.00
73429;BME280;61643;49.564;17.412;2023-04-08T11:10:41;98659.59;;;5.29;99.03
73429;BME280;61643;49.564;17.412;2023-04-08T11:13:07;98660.38;;;5.36;96.43
73429;BME280;61643;49.564;17.412;2023-04-08T11:15:34;98654.72;;;5.58;93.87
73429;BME280;61643;49.564;17.412;2023-04-08T11:18:03;98657.50;;;5.76;96.01
73429;BME280;61643;49.564;17.412;2023-04-08T11:20:31;98653.59;;;5.78;97.25
73429;BME280;61643;49.564;17.412;2023-04-08T11:22:59;98660.06;;;5.64;93.52
73429;BME280;61643;49.564;17.412;2023-04-08T11:25:25;98657.63;;;5.56;93.66
73429;BME280;61643;49.564;17.412;2023-04-08T11:27:52;98656.19;;;5.60;97.62
73429;BME280;61643;49.564;17.412;2023-04-08T11:30:18;98652.75;;;5.46;99.15
73429;BME280;61643;49.564;17.412;2023-04-08T11:32:45;98648.50;;;5.32;100.00
73429;BME280;61643;49.564;17.412;2023-04-08T11:35:11;98665.38;;;5.26;95.36
73429;BME280;61643;49.564;17.412;2023-04-08T11:37:40;98671.72;;;5.25;91.65
73429;BME280;61643;49.564;17.412;2023-04-08T11:40:10;98669.03;;;5.32;91.87
73429;BME280;61643;49.564;17.412;2023-04-08T11:42:37;98668.94;;;5.52;91.44
73429;BME280;61643;49.564;17.412;2023-04-08T11:45:14;98665.03;;;5.54;90.66
73429;BME280;61643;49.564;17.412;2023-04-08T11:47:44;98669.69;;;5.65;89.23
73429;BME280;61643;49.564;17.412;2023-04-08T11:50:11;98669.00;;;5.45;89.31
73429;BME280;61643;49.564;17.412;2023-04-08T11:52:48;98671.03;;;5.50;87.62
73429;BME280;61643;49.564;17.412;2023-04-08T11:57:51;98667.47;;;6.00;85.41
73429;BME280;61643;49.564;17.412;2023-04-08T12:00:18;98662.06;;;6.07;86.07
73429;BME280;61643;49.564;17.412;2023-04-08T12:02:45;98662.91;;;6.01;84.43
73429;BME280;61643;49.564;17.412;2023-04-08T12:05:14;98662.53;;;6.28;87.59
73429;BME280;61643;49.564;17.412;2023-04-08T12:07:41;98668.00;;;6.33;86.61
73429;BME280;61643;49.564;17.412;2023-04-08T12:10:08;98666.28;;;6.46;85.13
73429;BME280;61643;49.564;17.412;2023-04-08T12:12:35;98671.88;;;6.37;86.42
73429;BME280;61643;49.564;17.412;2023-04-08T12:15:01;98663.22;;;6.17;85.43
73429;BME280;61643;49.564;17.412;2023-04-08T12:17:27;98675.25;;;6.02;85.39
73429;BME280;61643;49.564;17.412;2023-04-08T12:19:53;98669.47;;;6.05;86.00
73429;BME280;61643;49.564;17.412;2023-04-08T12:22:19;98671.13;;;6.06;86.87
73429;BME280;61643;49.564;17.412;2023-04-08T12:24:45;98676.63;;;5.73;88.72
73429;BME280;61643;49.564;17.412;2023-04-08T12:27:11;98679.63;;;5.52;87.97
73429;BME280;61643;49.564;17.412;2023-04-08T12:29:37;98681.09;;;5.47;87.92
73429;BME280;61643;49.564;17.412;2023-04-08T12:32:04;98688.56;;;5.26;89.46
73429;BME280;61643;49.564;17.412;2023-04-08T12:34:31;98704.66;;;5.06;89.63
73429;BME280;61643;49.564;17.412;2023-04-08T12:36:57;98694.78;;;5.00;91.14
73429;BME280;61643;49.564;17.412;2023-04-08T12:39:24;98698.25;;;5.07;92.11
73429;BME280;61643;49.564;17.412;2023-04-08T12:41:50;98697.91;;;4.90;91.92
73429;BME280;61643;49.564;17.412;2023-04-08T12:44:16;98707.34;;;4.93;91.83
73429;BME280;61643;49.564;17.412;2023-04-08T12:46:42;98711.84;;;4.99;91.70
73429;BME280;61643;49.564;17.412;2023-04-08T12:49:09;98702.81;;;5.00;90.50
73429;BME280;61643;49.564;17.412;2023-04-08T12:51:36;98704.81;;;5.11;90.57
73429;BME280;61643;49.564;17.412;2023-04-08T12:54:03;98710.56;;;5.15;90.94
73429;BME280;61643;49.564;17.412;2023-04-08T12:56:30;98699.09;;;5.08;90.52
73429;BME280;61643;49.564;17.412;2023-04-08T12:58:58;98692.91;;;5.14;90.75
73429;BME280;61643;49.564;17.412;2023-04-08T13:01:24;98692.41;;;5.36;89.59
73429;BME280;61643;49.564;17.412;2023-04-08T13:03:50;98680.09;;;5.35;89.07
73429;BME280;61643;49.564;17.412;2023-04-08T13:06:16;98676.16;;;5.44;87.34
73429;BME280;61643;49.564;17.412;2023-04-08T13:08:42;98673.09;;;5.41;88.55
73429;BME280;61643;49.564;17.412;2023-04-08T13:11:08;98681.97;;;5.28;87.37
73429;BME280;61643;49.564;17.412;2023-04-08T13:13:34;98683.16;;;5.39;87.49
73429;BME280;61643;49.564;17.412;2023-04-08T13:16:01;98676.56;;;5.48;86.67